sensor_id;sensor_type;location;lat;lon;timestamp;P1;durP1;ratioP1;P2;durP2;ratioP2
25810;SDS011;13645;52.460;13.910;2023-07-28T00:00:42;3.05;;;2.75;;
25810;SDS011;13645;52.460;13.910;2023-07-28T00:03:10;6.35;;;2.88;;
25810;SDS011;13645;52.460;13.910;2023-07-28T00:05:36;4.05;;;2.60;;
25810;SDS011;13645;52.460;13.910;2023-07-28T00:08:03;2.50;;;2.30;;
25810;SDS011;13645;52.460;13.910;2023-07-28T00:10:30;2.85;;;2.33;;
25810;SDS011;13645;52.460;13.910;2023-07-28T00:12:57;2.45;;;2.25;;
25810;SDS011;13645;52.460;13.910;2023-07-28T00:15:25;4.47;;;1.92;;
25810;SDS011;13645;52.460;13.910;2023-07-28T00:17:51;1.83;;;1.70;;
25810;SDS011;13645;52.460;13.910;2023-07-28T00:20:18;3.03;;;1.88;;
25810;SDS011;13645;52.460;13.910;2023-07-28T00:22:45;1.95;;;1.70;;
25810;SDS011;13645;52.460;13.910;2023-07-28T00:25:12;3.33;;;1.80;;
25810;SDS011;13645;52.460;13.910;2023-07-28T00:27:39;3.47;;;1.60;;
25810;SDS011;13645;52.460;13.910;2023-07-28T00:30:05;4.55;;;1.58;;
25810;SDS011;13645;52.460;13.910;2023-07-28T00:32:33;5.32;;;1.70;;
25810;SDS011;13645;52.460;13.910;2023-07-28T00:34:59;2.30;;;1.70;;
25810;SDS011;13645;52.460;13.910;2023-07-28T00:37:26;2.78;;;1.60;;
25810;SDS011;13645;52.460;13.910;2023-07-28T00:39:53;1.63;;;1.40;;
25810;SDS011;13645;52.460;13.910;2023-07-28T00:42:20;3.70;;;1.80;;
25810;SDS011;13645;52.460;13.910;2023-07-28T00:44:46;4.00;;;1.92;;
25810;SDS011;13645;52.460;13.910;2023-07-28T00:47:13;2.65;;;1.88;;
25810;SDS011;13645;52.460;13.910;2023-07-28T00:49:40;4.30;;;2.03;;
25810;SDS011;13645;52.460;13.910;2023-07-28T00:52:07;3.90;;;2.20;;
25810;SDS011;13645;52.460;13.910;2023-07-28T00:54:37;5.93;;;2.20;;
25810;SDS011;13645;52.460;13.910;2023-07-28T00:57:04;3.00;;;1.80;;
25810;SDS011;13645;52.460;13.910;2023-07-28T00:59:31;2.28;;;2.03;;
25810;SDS011;13645;52.460;13.910;2023-07-28T01:01:58;2.45;;;1.50;;
25810;SDS011;13645;52.460;13.910;2023-07-28T01:04:25;1.85;;;1.35;;
25810;SDS011;13645;52.460;13.910;2023-07-28T01:07:04;3.38;;;1.33;;
25810;SDS011;13645;52.460;13.910;2023-07-28T01:09:42;1.60;;;1.50;;
25810;SDS011;13645;52.460;13.910;2023-07-28T01:12:16;5.90;;;1.40;;
25810;SDS011;13645;52.460;13.910;2023-07-28T01:14:43;6.25;;;1.58;;
25810;SDS011;13645;52.460;13.910;2023-07-28T01:17:10;2.97;;;1.83;;
25810;SDS011;13645;52.460;13.910;2023-07-28T01:19:38;2.58;;;1.95;;
25810;SDS011;13645;52.460;13.910;2023-07-28T01:24:58;2.58;;;2.08;;
25810;SDS011;13645;52.460;13.910;2023-07-28T01:27:34;4.65;;;2.13;;
25810;SDS011;13645;52.460;13.910;2023-07-28T01:30:03;2.95;;;2.05;;
25810;SDS011;13645;52.460;13.910;2023-07-28T01:32:30;5.95;;;2.40;;
25810;SDS011;13645;52.460;13.910;2023-07-28T01:34:57;6.47;;;2.55;;
25810;SDS011;13645;52.460;13.910;2023-07-28T01:37:24;5.90;;;2.40;;
25810;SDS011;13645;52.460;13.910;2023-07-28T01:39:51;3.55;;;2.15;;
25810;SDS011;13645;52.460;13.910;2023-07-28T01:42:17;6.22;;;2.20;;
25810;SDS011;13645;52.460;13.910;2023-07-28T01:44:44;3.67;;;2.10;;
25810;SDS011;13645;52.460;13.910;2023-07-28T01:47:11;2.60;;;2.28;;
25810;SDS011;13645;52.460;13.910;2023-07-28T01:49:37;3.15;;;1.92;;
25810;SDS011;13645;52.460;13.910;2023-07-28T01:52:04;4.80;;;2.10;;
25810;SDS011;13645;52.460;13.910;2023-07-28T01:54:31;2.95;;;2.00;;
25810;SDS011;13645;52.460;13.910;2023-07-28T01:57:00;6.25;;;2.25;;
25810;SDS011;13645;52.460;13.910;2023-07-28T01:59:27;5.25;;;2.03;;
25810;SDS011;13645;52.460;13.910;2023-07-28T02:01:53;2.67;;;2.00;;
25810;SDS011;13645;52.460;13.910;2023-07-28T02:04:20;4.95;;;2.28;;
25810;SDS011;13645;52.460;13.910;2023-07-28T02:06:47;3.25;;;1.83;;
25810;SDS011;13645;52.460;13.910;2023-07-28T02:09:14;3.88;;;2.13;;
25810;SDS011;13645;52.460;13.910;2023-07-28T02:11:40;2.95;;;1.85;;
25810;SDS011;13645;52.460;13.910;2023-07-28T02:14:07;4.57;;;2.05;;
25810;SDS011;13645;52.460;13.910;2023-07-28T02:16:34;2.47;;;1.85;;
25810;SDS011;13645;52.460;13.910;2023-07-28T02:19:01;4.95;;;1.90;;
25810;SDS011;13645;52.460;13.910;2023-07-28T02:21:28;5.38;;;2.00;;
25810;SDS011;13645;52.460;13.910;2023-07-28T02:23:56;5.38;;;2.00;;
25810;SDS011;13645;52.460;13.910;2023-07-28T02:26:23;6.22;;;2.25;;
25810;SDS011;13645;52.460;13.910;2023-07-28T02:28:50;2.88;;;1.95;;
25810;SDS011;13645;52.460;13.910;2023-07-28T02:31:17;3.40;;;2.20;;
25810;SDS011;13645;52.460;13.910;2023-07-28T02:33:43;5.85;;;2.38;;
25810;SDS011;13645;52.460;13.910;2023-07-28T02:36:10;6.28;;;2.38;;
25810;SDS011;13645;52.460;13.910;2023-07-28T02:38:37;4.18;;;2.33;;
25810;SDS011;13645;52.460;13.910;2023-07-28T02:41:04;5.53;;;2.45;;
25810;SDS011;13645;52.460;13.910;2023-07-28T02:43:31;7.28;;;2.65;;
25810;SDS011;13645;52.460;13.910;2023-07-28T02:45:58;3.78;;;2.17;;
25810;SDS011;13645;52.460;13.910;2023-07-28T02:48:27;4.63;;;2.17;;
25810;SDS011;13645;52.460;13.910;2023-07-28T02:50:53;4.55;;;2.20;;
25810;SDS011;13645;52.460;13.910;2023-07-28T02:53:20;5.45;;;2.20;;
25810;SDS011;13645;52.460;13.910;2023-07-28T02:55:47;3.63;;;2.33;;
25810;SDS011;13645;52.460;13.910;2023-07-28T02:58:15;4.38;;;2.40;;
25810;SDS011;13645;52.460;13.910;2023-07-28T03:00:43;7.50;;;2.35;;
25810;SDS011;13645;52.460;13.910;2023-07-28T03:03:11;3.50;;;2.03;;
25810;SDS011;13645;52.460;13.910;2023-07-28T03:05:39;4.82;;;2.17;;
25810;SDS011;13645;52.460;13.910;2023-07-28T03:08:06;6.03;;;2.08;;
25810;SDS011;13645;52.460;13.910;2023-07-28T03:10:32;3.92;;;2.10;;
25810;SDS011;13645;52.460;13.910;2023-07-28T03:12:59;3.72;;;1.80;;
25810;SDS011;13645;52.460;13.910;2023-07-28T03:15:26;5.15;;;2.38;;
25810;SDS011;13645;52.460;13.910;2023-07-28T03:17:53;4.57;;;2.45;;
25810;SDS011;13645;52.460;13.910;2023-07-28T03:20:21;7.57;;;2.22;;
25810;SDS011;13645;52.460;13.910;2023-07-28T03:22:48;9.30;;;2.50;;
25810;SDS011;13645;52.460;13.910;2023-07-28T03:25:14;2.60;;;2.33;;
25810;SDS011;13645;52.460;13.910;2023-07-28T03:27:41;5.18;;;2.70;;
25810;SDS011;13645;52.460;13.910;2023-07-28T03:30:08;7.95;;;2.75;;
25810;SDS011;13645;52.460;13.910;2023-07-28T03:32:37;6.85;;;2.63;;
25810;SDS011;13645;52.460;13.910;2023-07-28T03:35:04;6.40;;;2.38;;
25810;SDS011;13645;52.460;13.910;2023-07-28T03:37:34;3.92;;;2.30;;
25810;SDS011;13645;52.460;13.910;2023-07-28T03:40:01;6.10;;;2.50;;
25810;SDS011;13645;52.460;13.910;2023-07-28T03:42:28;4.47;;;2.53;;
25810;SDS011;13645;52.460;13.910;2023-07-28T03:44:54;3.47;;;2.50;;
25810;SDS011;13645;52.460;13.910;2023-07-28T03:47:21;8.65;;;2.70;;
25810;SDS011;13645;52.460;13.910;2023-07-28T03:49:48;5.70;;;2.70;;
25810;SDS011;13645;52.460;13.910;2023-07-28T03:52:15;7.43;;;2.70;;
25810;SDS011;13645;52.460;13.910;2023-07-28T03:54:41;3.47;;;2.67;;
25810;SDS011;13645;52.460;13.910;2023-07-28T03:57:08;7.78;;;2.85;;
25810;SDS011;13645;52.460;13.910;2023-07-28T03:59:36;8.00;;;2.63;;
25810;SDS011;13645;52.460;13.910;2023-07-28T04:02:03;6.38;;;3.25;;
25810;SDS011;13645;52.460;13.910;2023-07-28T04:04:30;4.25;;;2.58;;
25810;SDS011;13645;52.460;13.910;2023-07-28T04:06:56;5.53;;;2.70;;
25810;SDS011;13645;52.460;13.910;2023-07-28T04:09:23;6.40;;;3.17;;
25810;SDS011;13645;52.460;13.910;2023-07-28T04:11:50;11.25;;;3.33;;
25810;SDS011;13645;52.460;13.910;2023-07-28T04:14:17;6.20;;;3.40;;
25810;SDS011;13645;52.460;13.910;2023-07-28T04:16:44;7.70;;;3.17;;
25810;SDS011;13645;52.460;13.910;2023-07-28T04:19:10;5.00;;;3.55;;
25810;SDS011;13645;52.460;13.910;2023-07-28T04:21:37;8.23;;;3.30;;
25810;SDS011;13645;52.460;13.910;2023-07-28T04:24:07;5.00;;;3.40;;
25810;SDS011;13645;52.460;13.910;2023-07-28T04:26:35;7.03;;;3.28;;
25810;SDS011;13645;52.460;13.910;2023-07-28T04:29:02;6.50;;;3.65;;
25810;SDS011;13645;52.460;13.910;2023-07-28T04:31:29;9.85;;;3.65;;
25810;SDS011;13645;52.460;13.910;2023-07-28T04:33:56;5.10;;;3.42;;
25810;SDS011;13645;52.460;13.910;2023-07-28T04:36:30;11.25;;;3.70;;
25810;SDS011;13645;52.460;13.910;2023-07-28T04:38:57;7.15;;;3.38;;
25810;SDS011;13645;52.460;13.910;2023-07-28T04:41:24;7.10;;;3.25;;
25810;SDS011;13645;52.460;13.910;2023-07-28T04:43:51;4.90;;;3.50;;
25810;SDS011;13645;52.460;13.910;2023-07-28T04:46:18;5.85;;;3.42;;
25810;SDS011;13645;52.460;13.910;2023-07-28T04:48:45;7.25;;;3.50;;
25810;SDS011;13645;52.460;13.910;2023-07-28T04:51:12;5.15;;;3.83;;
25810;SDS011;13645;52.460;13.910;2023-07-28T04:53:39;7.75;;;3.70;;
25810;SDS011;13645;52.460;13.910;2023-07-28T04:56:05;8.82;;;3.60;;
25810;SDS011;13645;52.460;13.910;2023-07-28T04:58:32;6.75;;;3.70;;
25810;SDS011;13645;52.460;13.910;2023-07-28T05:00:59;7.05;;;3.47;;
25810;SDS011;13645;52.460;13.910;2023-07-28T05:03:26;6.40;;;3.70;;
25810;SDS011;13645;52.460;13.910;2023-07-28T05:05:52;4.47;;;3.80;;
25810;SDS011;13645;52.460;13.910;2023-07-28T05:08:19;6.95;;;3.65;;
25810;SDS011;13645;52.460;13.910;2023-07-28T05:10:46;4.03;;;3.53;;
25810;SDS011;13645;52.460;13.910;2023-07-28T05:13:13;5.13;;;3.63;;
25810;SDS011;13645;52.460;13.910;2023-07-28T05:15:40;7.00;;;3.97;;
25810;SDS011;13645;52.460;13.910;2023-07-28T05:18:06;8.20;;;3.78;;
25810;SDS011;13645;52.460;13.910;2023-07-28T05:20:33;7.38;;;3.97;;
25810;SDS011;13645;52.460;13.910;2023-07-28T05:23:00;7.13;;;3.72;;
25810;SDS011;13645;52.460;13.910;2023-07-28T05:25:27;7.93;;;4.50;;
25810;SDS011;13645;52.460;13.910;2023-07-28T05:27:53;5.82;;;4.10;;
25810;SDS011;13645;52.460;13.910;2023-07-28T05:30:20;6.00;;;4.38;;
25810;SDS011;13645;52.460;13.910;2023-07-28T05:32:53;6.32;;;4.32;;
25810;SDS011;13645;52.460;13.910;2023-07-28T05:35:20;4.65;;;4.25;;
25810;SDS011;13645;52.460;13.910;2023-07-28T05:37:47;11.65;;;7.20;;
25810;SDS011;13645;52.460;13.910;2023-07-28T05:40:14;7.63;;;4.15;;
25810;SDS011;13645;52.460;13.910;2023-07-28T05:42:41;8.90;;;4.15;;
25810;SDS011;13645;52.460;13.910;2023-07-28T05:45:08;4.50;;;3.83;;
25810;SDS011;13645;52.460;13.910;2023-07-28T05:47:35;5.75;;;4.10;;
25810;SDS011;13645;52.460;13.910;2023-07-28T05:50:04;6.13;;;4.10;;
25810;SDS011;13645;52.460;13.910;2023-07-28T05:52:31;8.35;;;6.07;;
25810;SDS011;13645;52.460;13.910;2023-07-28T05:54:58;8.88;;;4.40;;
25810;SDS011;13645;52.460;13.910;2023-07-28T05:57:25;4.72;;;4.10;;
25810;SDS011;13645;52.460;13.910;2023-07-28T05:59:52;6.63;;;4.28;;
25810;SDS011;13645;52.460;13.910;2023-07-28T06:02:19;5.28;;;3.88;;
25810;SDS011;13645;52.460;13.910;2023-07-28T06:04:46;6.45;;;3.63;;
25810;SDS011;13645;52.460;13.910;2023-07-28T06:07:12;8.02;;;3.95;;
25810;SDS011;13645;52.460;13.910;2023-07-28T06:09:39;6.03;;;3.72;;
25810;SDS011;13645;52.460;13.910;2023-07-28T06:12:06;7.70;;;3.80;;
25810;SDS011;13645;52.460;13.910;2023-07-28T06:14:33;5.68;;;3.75;;
25810;SDS011;13645;52.460;13.910;2023-07-28T06:17:00;3.92;;;3.53;;
25810;SDS011;13645;52.460;13.910;2023-07-28T06:19:26;5.47;;;3.70;;
25810;SDS011;13645;52.460;13.910;2023-07-28T06:21:53;8.48;;;3.63;;
25810;SDS011;13645;52.460;13.910;2023-07-28T06:24:20;7.28;;;3.50;;
25810;SDS011;13645;52.460;13.910;2023-07-28T06:26:47;10.90;;;3.85;;
25810;SDS011;13645;52.460;13.910;2023-07-28T06:29:14;5.20;;;3.72;;
25810;SDS011;13645;52.460;13.910;2023-07-28T06:31:41;6.35;;;3.53;;
25810;SDS011;13645;52.460;13.910;2023-07-28T06:34:08;6.00;;;3.08;;
25810;SDS011;13645;52.460;13.910;2023-07-28T06:36:35;4.43;;;3.20;;
25810;SDS011;13645;52.460;13.910;2023-07-28T06:39:02;3.95;;;3.40;;
25810;SDS011;13645;52.460;13.910;2023-07-28T06:41:29;6.28;;;2.85;;
25810;SDS011;13645;52.460;13.910;2023-07-28T06:43:56;6.40;;;3.08;;
25810;SDS011;13645;52.460;13.910;2023-07-28T06:46:23;5.45;;;3.33;;
25810;SDS011;13645;52.460;13.910;2023-07-28T06:48:50;10.23;;;3.33;;
25810;SDS011;13645;52.460;13.910;2023-07-28T06:51:17;6.65;;;3.40;;
25810;SDS011;13645;52.460;13.910;2023-07-28T06:53:43;8.95;;;2.80;;
25810;SDS011;13645;52.460;13.910;2023-07-28T06:56:10;5.82;;;2.97;;
25810;SDS011;13645;52.460;13.910;2023-07-28T06:58:37;4.00;;;2.88;;
25810;SDS011;13645;52.460;13.910;2023-07-28T07:01:03;3.35;;;2.80;;
25810;SDS011;13645;52.460;13.910;2023-07-28T07:03:30;4.10;;;2.85;;
25810;SDS011;13645;52.460;13.910;2023-07-28T07:05:57;8.55;;;3.33;;
25810;SDS011;13645;52.460;13.910;2023-07-28T07:08:24;3.47;;;3.13;;
25810;SDS011;13645;52.460;13.910;2023-07-28T07:10:50;5.18;;;2.80;;
25810;SDS011;13645;52.460;13.910;2023-07-28T07:13:18;4.97;;;2.90;;
25810;SDS011;13645;52.460;13.910;2023-07-28T07:15:46;8.20;;;3.42;;
25810;SDS011;13645;52.460;13.910;2023-07-28T07:18:12;4.43;;;3.20;;
25810;SDS011;13645;52.460;13.910;2023-07-28T07:20:39;6.88;;;3.00;;
25810;SDS011;13645;52.460;13.910;2023-07-28T07:23:06;4.45;;;3.05;;
25810;SDS011;13645;52.460;13.910;2023-07-28T07:25:33;5.05;;;3.25;;
25810;SDS011;13645;52.460;13.910;2023-07-28T07:28:00;4.95;;;2.90;;
25810;SDS011;13645;52.460;13.910;2023-07-28T07:30:27;5.75;;;2.90;;
25810;SDS011;13645;52.460;13.910;2023-07-28T07:32:54;4.00;;;3.03;;
25810;SDS011;13645;52.460;13.910;2023-07-28T07:35:21;4.28;;;3.33;;
25810;SDS011;13645;52.460;13.910;2023-07-28T07:37:47;5.60;;;3.00;;
25810;SDS011;13645;52.460;13.910;2023-07-28T07:40:14;7.22;;;2.80;;
25810;SDS011;13645;52.460;13.910;2023-07-28T07:42:42;4.22;;;3.25;;
25810;SDS011;13645;52.460;13.910;2023-07-28T07:45:13;3.05;;;2.67;;
25810;SDS011;13645;52.460;13.910;2023-07-28T07:47:40;9.25;;;2.80;;
25810;SDS011;13645;52.460;13.910;2023-07-28T07:50:08;4.82;;;2.50;;
25810;SDS011;13645;52.460;13.910;2023-07-28T07:52:36;6.15;;;2.45;;
25810;SDS011;13645;52.460;13.910;2023-07-28T07:55:06;9.38;;;2.42;;
25810;SDS011;13645;52.460;13.910;2023-07-28T07:57:35;2.85;;;2.08;;
25810;SDS011;13645;52.460;13.910;2023-07-28T08:00:02;4.97;;;2.20;;
25810;SDS011;13645;52.460;13.910;2023-07-28T08:02:32;4.15;;;2.10;;
25810;SDS011;13645;52.460;13.910;2023-07-28T08:04:58;2.35;;;1.90;;
25810;SDS011;13645;52.460;13.910;2023-07-28T08:07:26;5.63;;;2.33;;
25810;SDS011;13645;52.460;13.910;2023-07-28T08:09:52;3.47;;;1.90;;
25810;SDS011;13645;52.460;13.910;2023-07-28T08:12:20;5.18;;;2.08;;
25810;SDS011;13645;52.460;13.910;2023-07-28T08:14:46;2.38;;;2.10;;
25810;SDS011;13645;52.460;13.910;2023-07-28T08:17:14;7.43;;;2.40;;
25810;SDS011;13645;52.460;13.910;2023-07-28T08:19:40;1.73;;;1.63;;
25810;SDS011;13645;52.460;13.910;2023-07-28T08:22:07;5.57;;;2.17;;
25810;SDS011;13645;52.460;13.910;2023-07-28T08:24:35;4.03;;;2.15;;
25810;SDS011;13645;52.460;13.910;2023-07-28T08:27:02;2.45;;;1.98;;
25810;SDS011;13645;52.460;13.910;2023-07-28T08:29:29;2.33;;;1.85;;
25810;SDS011;13645;52.460;13.910;2023-07-28T08:31:55;5.10;;;1.90;;
25810;SDS011;13645;52.460;13.910;2023-07-28T08:34:22;5.13;;;1.98;;
25810;SDS011;13645;52.460;13.910;2023-07-28T08:36:49;5.95;;;1.80;;
25810;SDS011;13645;52.460;13.910;2023-07-28T08:39:17;3.38;;;1.75;;
25810;SDS011;13645;52.460;13.910;2023-07-28T08:41:44;2.65;;;1.92;;
25810;SDS011;13645;52.460;13.910;2023-07-28T08:44:11;5.25;;;1.65;;
25810;SDS011;13645;52.460;13.910;2023-07-28T08:46:37;3.03;;;1.48;;
25810;SDS011;13645;52.460;13.910;2023-07-28T08:49:05;5.90;;;1.80;;
25810;SDS011;13645;52.460;13.910;2023-07-28T08:51:32;2.67;;;1.40;;
25810;SDS011;13645;52.460;13.910;2023-07-28T08:53:59;5.93;;;1.48;;
25810;SDS011;13645;52.460;13.910;2023-07-28T08:56:26;4.20;;;1.52;;
25810;SDS011;13645;52.460;13.910;2023-07-28T08:58:58;2.28;;;1.25;;
25810;SDS011;13645;52.460;13.910;2023-07-28T09:01:25;2.90;;;1.20;;
25810;SDS011;13645;52.460;13.910;2023-07-28T09:03:52;3.65;;;1.20;;
25810;SDS011;13645;52.460;13.910;2023-07-28T09:06:19;1.25;;;1.15;;
25810;SDS011;13645;52.460;13.910;2023-07-28T09:08:56;1.10;;;1.00;;
25810;SDS011;13645;52.460;13.910;2023-07-28T09:11:24;3.53;;;1.30;;
25810;SDS011;13645;52.460;13.910;2023-07-28T09:13:53;1.20;;;1.10;;
25810;SDS011;13645;52.460;13.910;2023-07-28T09:16:22;2.08;;;1.20;;
25810;SDS011;13645;52.460;13.910;2023-07-28T09:18:51;2.72;;;1.42;;
25810;SDS011;13645;52.460;13.910;2023-07-28T09:21:33;1.45;;;1.05;;
25810;SDS011;13645;52.460;13.910;2023-07-28T09:24:03;3.72;;;1.23;;
25810;SDS011;13645;52.460;13.910;2023-07-28T09:26:39;2.80;;;1.23;;
25810;SDS011;13645;52.460;13.910;2023-07-28T09:29:25;5.85;;;1.00;;
25810;SDS011;13645;52.460;13.910;2023-07-28T09:31:54;4.22;;;1.13;;
25810;SDS011;13645;52.460;13.910;2023-07-28T09:34:30;5.80;;;1.30;;
25810;SDS011;13645;52.460;13.910;2023-07-28T09:36:59;1.42;;;1.00;;
25810;SDS011;13645;52.460;13.910;2023-07-28T09:39:26;2.97;;;1.13;;
25810;SDS011;13645;52.460;13.910;2023-07-28T09:41:54;4.03;;;1.10;;
25810;SDS011;13645;52.460;13.910;2023-07-28T09:44:24;2.22;;;0.80;;
25810;SDS011;13645;52.460;13.910;2023-07-28T09:46:52;1.40;;;0.73;;
25810;SDS011;13645;52.460;13.910;2023-07-28T09:49:22;6.15;;;0.95;;
25810;SDS011;13645;52.460;13.910;2023-07-28T09:52:03;1.88;;;0.98;;
25810;SDS011;13645;52.460;13.910;2023-07-28T09:54:33;2.40;;;0.90;;
25810;SDS011;13645;52.460;13.910;2023-07-28T09:57:07;6.37;;;1.03;;
25810;SDS011;13645;52.460;13.910;2023-07-28T09:59:38;3.28;;;1.00;;
25810;SDS011;13645;52.460;13.910;2023-07-28T10:02:06;1.30;;;1.08;;
25810;SDS011;13645;52.460;13.910;2023-07-28T10:04:34;1.85;;;1.13;;
25810;SDS011;13645;52.460;13.910;2023-07-28T10:07:02;1.05;;;1.00;;
25810;SDS011;13645;52.460;13.910;2023-07-28T10:09:31;2.63;;;0.93;;
25810;SDS011;13645;52.460;13.910;2023-07-28T10:12:01;1.48;;;0.90;;
25810;SDS011;13645;52.460;13.910;2023-07-28T10:14:30;1.02;;;0.90;;
25810;SDS011;13645;52.460;13.910;2023-07-28T10:17:04;1.20;;;1.00;;
25810;SDS011;13645;52.460;13.910;2023-07-28T10:19:35;3.63;;;1.20;;
25810;SDS011;13645;52.460;13.910;2023-07-28T10:22:06;2.97;;;1.25;;
25810;SDS011;13645;52.460;13.910;2023-07-28T10:24:53;1.83;;;0.90;;
25810;SDS011;13645;52.460;13.910;2023-07-28T10:30:12;0.85;;;0.85;;
25810;SDS011;13645;52.460;13.910;2023-07-28T10:32:43;6.00;;;1.10;;
25810;SDS011;13645;52.460;13.910;2023-07-28T10:37:38;1.35;;;1.00;;
25810;SDS011;13645;52.460;13.910;2023-07-28T10:43:02;1.05;;;1.00;;
25810;SDS011;13645;52.460;13.910;2023-07-28T10:45:31;1.90;;;1.10;;
25810;SDS011;13645;52.460;13.910;2023-07-28T10:47:59;1.98;;;0.93;;
25810;SDS011;13645;52.460;13.910;2023-07-28T10:50:28;2.50;;;1.00;;
25810;SDS011;13645;52.460;13.910;2023-07-28T10:52:56;2.88;;;1.00;;
25810;SDS011;13645;52.460;13.910;2023-07-28T10:55:24;1.60;;;0.77;;
25810;SDS011;13645;52.460;13.910;2023-07-28T10:57:52;2.10;;;1.30;;
25810;SDS011;13645;52.460;13.910;2023-07-28T11:00:20;5.13;;;0.93;;
25810;SDS011;13645;52.460;13.910;2023-07-28T11:02:49;2.10;;;0.90;;
25810;SDS011;13645;52.460;13.910;2023-07-28T11:05:21;0.80;;;0.80;;
25810;SDS011;13645;52.460;13.910;2023-07-28T11:10:20;2.92;;;1.05;;
25810;SDS011;13645;52.460;13.910;2023-07-28T11:12:48;1.98;;;1.05;;
25810;SDS011;13645;52.460;13.910;2023-07-28T11:15:19;1.85;;;1.10;;
25810;SDS011;13645;52.460;13.910;2023-07-28T11:17:47;3.22;;;1.08;;
25810;SDS011;13645;52.460;13.910;2023-07-28T11:20:16;0.77;;;0.77;;
25810;SDS011;13645;52.460;13.910;2023-07-28T11:22:55;2.25;;;1.00;;
25810;SDS011;13645;52.460;13.910;2023-07-28T11:25:31;2.35;;;0.90;;
25810;SDS011;13645;52.460;13.910;2023-07-28T11:28:02;1.15;;;0.90;;
25810;SDS011;13645;52.460;13.910;2023-07-28T11:30:33;1.40;;;0.90;;
25810;SDS011;13645;52.460;13.910;2023-07-28T11:33:06;0.98;;;0.90;;
25810;SDS011;13645;52.460;13.910;2023-07-28T11:35:37;6.15;;;1.25;;
25810;SDS011;13645;52.460;13.910;2023-07-28T11:38:04;1.48;;;1.00;;
25810;SDS011;13645;52.460;13.910;2023-07-28T11:40:33;3.30;;;1.10;;
25810;SDS011;13645;52.460;13.910;2023-07-28T11:43:17;3.20;;;0.80;;
25810;SDS011;13645;52.460;13.910;2023-07-28T11:45:44;1.88;;;1.05;;
25810;SDS011;13645;52.460;13.910;2023-07-28T11:48:11;2.72;;;0.90;;
25810;SDS011;13645;52.460;13.910;2023-07-28T11:50:41;1.50;;;0.98;;
25810;SDS011;13645;52.460;13.910;2023-07-28T11:53:12;3.58;;;0.93;;
25810;SDS011;13645;52.460;13.910;2023-07-28T11:55:40;1.33;;;0.93;;
25810;SDS011;13645;52.460;13.910;2023-07-28T11:58:07;3.47;;;1.02;;
25810;SDS011;13645;52.460;13.910;2023-07-28T12:00:36;1.90;;;1.50;;
25810;SDS011;13645;52.460;13.910;2023-07-28T12:03:06;3.65;;;1.20;;
25810;SDS011;13645;52.460;13.910;2023-07-28T12:05:42;2.92;;;1.10;;
25810;SDS011;13645;52.460;13.910;2023-07-28T12:09:03;1.92;;;0.93;;
25810;SDS011;13645;52.460;13.910;2023-07-28T12:11:35;1.60;;;1.50;;
25810;SDS011;13645;52.460;13.910;2023-07-28T12:14:05;1.33;;;1.00;;
25810;SDS011;13645;52.460;13.910;2023-07-28T12:16:39;1.42;;;1.30;;
25810;SDS011;13645;52.460;13.910;2023-07-28T12:19:12;2.03;;;1.17;;
25810;SDS011;13645;52.460;13.910;2023-07-28T12:21:48;1.15;;;1.05;;
25810;SDS011;13645;52.460;13.910;2023-07-28T12:24:21;3.35;;;1.15;;
25810;SDS011;13645;52.460;13.910;2023-07-28T12:26:48;1.65;;;1.30;;
25810;SDS011;13645;52.460;13.910;2023-07-28T12:29:19;3.50;;;1.25;;
25810;SDS011;13645;52.460;13.910;2023-07-28T12:31:56;3.67;;;1.33;;
25810;SDS011;13645;52.460;13.910;2023-07-28T12:34:28;1.98;;;1.30;;
25810;SDS011;13645;52.460;13.910;2023-07-28T12:36:55;2.95;;;1.27;;
25810;SDS011;13645;52.460;13.910;2023-07-28T12:39:22;4.47;;;1.52;;
25810;SDS011;13645;52.460;13.910;2023-07-28T12:41:52;1.48;;;1.10;;
25810;SDS011;13645;52.460;13.910;2023-07-28T12:44:24;1.40;;;1.15;;
25810;SDS011;13645;52.460;13.910;2023-07-28T12:46:57;1.55;;;1.20;;
25810;SDS011;13645;52.460;13.910;2023-07-28T12:49:32;2.30;;;1.40;;
25810;SDS011;13645;52.460;13.910;2023-07-28T12:52:03;3.38;;;1.30;;
25810;SDS011;13645;52.460;13.910;2023-07-28T12:54:52;1.98;;;1.27;;
25810;SDS011;13645;52.460;13.910;2023-07-28T12:57:20;2.35;;;1.02;;
25810;SDS011;13645;52.460;13.910;2023-07-28T12:59:46;2.55;;;1.10;;
25810;SDS011;13645;52.460;13.910;2023-07-28T13:02:17;2.20;;;1.15;;
25810;SDS011;13645;52.460;13.910;2023-07-28T13:04:43;4.32;;;1.20;;
25810;SDS011;13645;52.460;13.910;2023-07-28T13:07:10;2.00;;;1.10;;
25810;SDS011;13645;52.460;13.910;2023-07-28T13:09:40;1.20;;;1.02;;
25810;SDS011;13645;52.460;13.910;2023-07-28T13:12:08;3.35;;;0.90;;
25810;SDS011;13645;52.460;13.910;2023-07-28T13:14:38;3.03;;;1.00;;
25810;SDS011;13645;52.460;13.910;2023-07-28T13:17:05;2.08;;;1.13;;
25810;SDS011;13645;52.460;13.910;2023-07-28T13:19:32;3.42;;;1.27;;
25810;SDS011;13645;52.460;13.910;2023-07-28T13:21:59;1.25;;;1.15;;
25810;SDS011;13645;52.460;13.910;2023-07-28T13:24:26;2.55;;;1.27;;
25810;SDS011;13645;52.460;13.910;2023-07-28T13:26:52;4.93;;;1.10;;
25810;SDS011;13645;52.460;13.910;2023-07-28T13:29:19;1.70;;;1.10;;
25810;SDS011;13645;52.460;13.910;2023-07-28T13:31:49;1.30;;;1.10;;
25810;SDS011;13645;52.460;13.910;2023-07-28T13:34:16;1.30;;;1.10;;
25810;SDS011;13645;52.460;13.910;2023-07-28T13:36:43;1.42;;;1.02;;
25810;SDS011;13645;52.460;13.910;2023-07-28T13:39:10;1.92;;;1.17;;
25810;SDS011;13645;52.460;13.910;2023-07-28T13:41:37;1.42;;;1.20;;
25810;SDS011;13645;52.460;13.910;2023-07-28T13:44:04;2.00;;;1.10;;
25810;SDS011;13645;52.460;13.910;2023-07-28T13:46:30;1.58;;;1.15;;
25810;SDS011;13645;52.460;13.910;2023-07-28T13:48:57;4.38;;;1.17;;
25810;SDS011;13645;52.460;13.910;2023-07-28T13:51:33;1.38;;;1.27;;
25810;SDS011;13645;52.460;13.910;2023-07-28T13:54:20;3.63;;;1.50;;
25810;SDS011;13645;52.460;13.910;2023-07-28T13:56:49;3.17;;;1.23;;
25810;SDS011;13645;52.460;13.910;2023-07-28T13:59:18;1.65;;;1.20;;
25810;SDS011;13645;52.460;13.910;2023-07-28T14:01:46;2.03;;;1.15;;
25810;SDS011;13645;52.460;13.910;2023-07-28T14:04:12;1.17;;;0.90;;
25810;SDS011;13645;52.460;13.910;2023-07-28T14:06:40;1.63;;;1.35;;
25810;SDS011;13645;52.460;13.910;2023-07-28T14:09:07;1.23;;;1.13;;
25810;SDS011;13645;52.460;13.910;2023-07-28T14:11:33;2.03;;;1.25;;
25810;SDS011;13645;52.460;13.910;2023-07-28T14:14:01;1.25;;;1.00;;
25810;SDS011;13645;52.460;13.910;2023-07-28T14:16:27;1.40;;;1.00;;
25810;SDS011;13645;52.460;13.910;2023-07-28T14:18:54;2.78;;;1.20;;
25810;SDS011;13645;52.460;13.910;2023-07-28T14:21:24;2.72;;;1.30;;
25810;SDS011;13645;52.460;13.910;2023-07-28T14:23:51;1.10;;;0.90;;
25810;SDS011;13645;52.460;13.910;2023-07-28T14:26:18;1.25;;;1.10;;
25810;SDS011;13645;52.460;13.910;2023-07-28T14:28:45;1.55;;;1.00;;
25810;SDS011;13645;52.460;13.910;2023-07-28T14:31:12;1.23;;;1.13;;
25810;SDS011;13645;52.460;13.910;2023-07-28T14:33:39;1.10;;;1.00;;
25810;SDS011;13645;52.460;13.910;2023-07-28T14:36:06;2.47;;;0.88;;
25810;SDS011;13645;52.460;13.910;2023-07-28T14:38:33;1.10;;;1.00;;
25810;SDS011;13645;52.460;13.910;2023-07-28T14:41:00;1.05;;;1.02;;
25810;SDS011;13645;52.460;13.910;2023-07-28T14:43:26;2.53;;;1.20;;
25810;SDS011;13645;52.460;13.910;2023-07-28T14:45:53;4.40;;;1.38;;
25810;SDS011;13645;52.460;13.910;2023-07-28T14:48:23;1.08;;;1.08;;
25810;SDS011;13645;52.460;13.910;2023-07-28T14:50:50;2.15;;;1.42;;
25810;SDS011;13645;52.460;13.910;2023-07-28T14:56:01;2.38;;;1.20;;